Details for EasyJet at LFMN




Go Back


Latest METAR
Local Time

LFMN 241330Z 35005KT 320V040 9999 FEW030 OVC063 12/08 Q1004 NOSIG

24/02/2018, 14:49:56

Description
Results
EasyJet Logo
Number of Pilots based at LFMN
0 Pilots Based here
Number of EasyJet Flights Departed from LFMN
1 Flights Departed
Number of EasyJet Flights Arrived at LFMN
4 Flights Arrived
Number of EasyJet Schedules Departing from LFMN
116 Schedules
Number of EasyJet Schedules Arriving at LFMN
114 Schedules
Number of EasyJet Schedules Departing from LFMN availible today
39 Schedules Today
Number of EasyJet Schedules Arriving at LFMN availible today
38 Schedules Today
Average Landing Rate at LFMN
-277 fpm
EasyJet Average Landing Rate at LFMN
-257 fpm
Total Fuel Purchased at LFMN by EasyJet
2,936.56 kgs / 6,473.94 lbs

Pilots Based at LFMN


Pilot ID
Pilot Name
Pilot Rank
No. of Flights
No. of Flying Hours
There are no pilots assigned to this hub!   Will you be the first?
Content